createdAt,value
2019-05-25T00:00:56.166Z,18.66
2019-05-25T00:03:25.728Z,18.70
2019-05-25T00:05:55.368Z,18.55
2019-05-25T00:08:24.944Z,18.43
2019-05-25T00:10:54.583Z,18.43
2019-05-25T00:13:24.148Z,18.53
2019-05-25T00:15:53.777Z,18.26
2019-05-25T00:18:23.435Z,18.37
2019-05-25T00:20:53.010Z,18.33
2019-05-25T00:23:22.585Z,18.18
2019-05-25T00:25:52.140Z,18.20
2019-05-25T00:28:21.707Z,18.09
2019-05-25T00:30:51.267Z,18.11
2019-05-25T00:33:20.839Z,18.34
2019-05-25T00:35:50.395Z,18.34
2019-05-25T00:38:19.978Z,18.32
2019-05-25T00:40:50.551Z,18.23
2019-05-25T00:43:20.122Z,18.43
2019-05-25T00:45:49.691Z,18.52
2019-05-25T00:48:19.454Z,18.31
2019-05-25T00:50:49.025Z,18.08
2019-05-25T00:53:18.584Z,18.07
2019-05-25T00:55:48.151Z,18.32
2019-05-25T00:58:18.188Z,18.47
2019-05-25T01:00:47.837Z,18.36
2019-05-25T01:03:17.395Z,18.46
2019-05-25T01:05:47.011Z,18.30
2019-05-25T01:08:16.749Z,18.21
2019-05-25T01:10:46.324Z,18.03
2019-05-25T01:13:15.962Z,18.40
2019-05-25T01:15:45.539Z,18.47
2019-05-25T01:18:15.130Z,18.38
2019-05-25T01:20:45.287Z,18.30
2019-05-25T01:23:14.922Z,18.33
2019-05-25T01:25:44.562Z,18.31
2019-05-25T01:28:14.126Z,18.33
2019-05-25T01:30:43.677Z,18.14
2019-05-25T01:33:13.318Z,18.19
2019-05-25T01:35:42.877Z,18.31
2019-05-25T01:38:12.441Z,18.14
2019-05-25T01:40:42.002Z,18.22
2019-05-25T01:43:11.657Z,18.28
2019-05-25T01:45:41.232Z,18.30
2019-05-25T01:48:10.799Z,18.14
2019-05-25T01:50:40.354Z,18.21
2019-05-25T01:53:11.581Z,18.09
2019-05-25T01:55:41.278Z,17.94
2019-05-25T01:58:10.847Z,18.00
2019-05-25T02:00:40.432Z,17.83
2019-05-25T02:03:09.980Z,17.95
2019-05-25T02:05:39.539Z,18.02
2019-05-25T02:08:09.104Z,18.04
2019-05-25T02:10:38.664Z,18.09
2019-05-25T02:13:08.233Z,18.20
2019-05-25T02:15:37.884Z,18.18
2019-05-25T02:18:07.472Z,18.12
2019-05-25T02:20:37.018Z,18.13
2019-05-25T02:23:06.733Z,17.86
2019-05-25T02:25:37.696Z,17.90
2019-05-25T02:28:07.240Z,18.10
2019-05-25T02:30:37.924Z,18.15
2019-05-25T02:33:07.549Z,18.11
2019-05-25T02:35:37.125Z,18.13
2019-05-25T02:38:06.699Z,18.08
2019-05-25T02:40:36.330Z,17.61
2019-05-25T02:43:06.039Z,17.53
2019-05-25T02:45:35.870Z,17.76
2019-05-25T02:48:05.652Z,17.78
2019-05-25T02:50:35.220Z,17.75
2019-05-25T02:53:04.930Z,17.56
2019-05-25T02:55:35.438Z,17.73
2019-05-25T02:58:05.181Z,17.78
2019-05-25T03:00:36.276Z,17.74
2019-05-25T03:03:13.431Z,17.74
2019-05-25T03:05:43.500Z,17.76
2019-05-25T03:08:13.036Z,17.40
2019-05-25T03:10:43.076Z,17.71
2019-05-25T03:13:12.691Z,17.76
2019-05-25T03:15:42.270Z,17.42
2019-05-25T03:18:11.851Z,17.53
2019-05-25T03:20:41.429Z,17.65
2019-05-25T03:23:11.017Z,17.71
2019-05-25T03:25:49.033Z,17.62
2019-05-25T03:28:12.100Z,17.68
2019-05-25T03:30:41.751Z,17.63
2019-05-25T03:33:12.353Z,17.60
2019-05-25T03:35:41.984Z,17.17
2019-05-25T03:38:11.581Z,17.13
2019-05-25T03:40:41.154Z,17.03
2019-05-25T03:43:11.651Z,16.95
2019-05-25T03:45:41.232Z,16.86
2019-05-25T03:48:10.805Z,16.93
2019-05-25T03:50:40.440Z,16.81
2019-05-25T03:53:10.020Z,16.85
2019-05-25T03:55:39.575Z,16.96
2019-05-25T03:58:09.148Z,16.99
2019-05-25T04:00:39.433Z,16.94
2019-05-25T04:03:10.010Z,17.09
2019-05-25T04:05:39.657Z,17.07
2019-05-25T04:08:09.291Z,16.96
2019-05-25T04:10:39.215Z,17.08
2019-05-25T04:13:08.895Z,17.16
2019-05-25T04:15:38.473Z,17.14
2019-05-25T04:18:08.048Z,17.36
2019-05-25T04:20:37.635Z,17.39
2019-05-25T04:23:07.190Z,17.24
2019-05-25T04:25:36.774Z,17.04
2019-05-25T04:28:06.416Z,16.92
2019-05-25T04:30:35.998Z,16.95
2019-05-25T04:33:05.582Z,17.00
2019-05-25T04:35:35.184Z,17.04
2019-05-25T04:38:04.911Z,17.25
2019-05-25T04:40:34.556Z,17.42
2019-05-25T04:43:04.238Z,17.30
2019-05-25T04:45:36.869Z,17.24
2019-05-25T04:48:06.441Z,17.41
2019-05-25T04:50:36.027Z,17.45
2019-05-25T04:53:05.691Z,17.61
2019-05-25T04:55:35.802Z,17.91
2019-05-25T04:58:05.616Z,17.90
2019-05-25T05:00:35.188Z,17.78
2019-05-25T05:03:04.866Z,17.85
2019-05-25T05:05:34.423Z,17.75
2019-05-25T05:08:04.059Z,18.04
2019-05-25T05:10:33.718Z,18.05
2019-05-25T05:13:03.271Z,18.02
2019-05-25T05:15:32.870Z,17.75
2019-05-25T05:18:02.495Z,17.91
2019-05-25T05:20:32.071Z,18.07
2019-05-25T05:23:03.080Z,18.24
2019-05-25T05:25:32.672Z,18.03
2019-05-25T05:28:02.243Z,18.11
2019-05-25T05:30:35.746Z,18.41
2019-05-25T05:33:05.566Z,18.23
2019-05-25T05:35:38.919Z,18.03
2019-05-25T05:38:07.522Z,17.91
2019-05-25T05:40:38.015Z,18.06
2019-05-25T05:43:11.779Z,17.95
2019-05-25T05:45:44.710Z,17.89
2019-05-25T05:48:15.296Z,17.89
2019-05-25T05:50:47.102Z,17.84
2019-05-25T05:53:20.086Z,18.09
2019-05-25T05:55:49.659Z,18.05
2019-05-25T05:58:19.236Z,17.94
2019-05-25T06:00:48.938Z,17.85
2019-05-25T06:03:18.528Z,17.96
2019-05-25T06:05:48.197Z,18.21
2019-05-25T06:08:17.920Z,18.20
2019-05-25T06:10:47.484Z,18.25
2019-05-25T06:13:17.057Z,18.36
2019-05-25T06:15:46.638Z,18.38
2019-05-25T06:18:16.211Z,18.15
2019-05-25T06:20:45.786Z,18.40
2019-05-25T06:23:16.499Z,18.17
2019-05-25T06:25:46.093Z,17.92
2019-05-25T06:28:18.952Z,17.94
2019-05-25T06:30:47.377Z,17.81
2019-05-25T06:33:16.949Z,17.76
2019-05-25T06:35:46.503Z,17.91
2019-05-25T06:38:16.077Z,18.34
2019-05-25T06:40:45.661Z,18.39
2019-05-25T06:43:15.237Z,18.76
2019-05-25T06:45:45.788Z,18.95
2019-05-25T06:48:15.420Z,19.25
2019-05-25T06:50:44.993Z,19.13
2019-05-25T06:53:14.608Z,19.25
2019-05-25T06:55:45.106Z,18.95
2019-05-25T06:58:16.228Z,18.93
2019-05-25T07:00:46.488Z,19.06
2019-05-25T07:03:16.058Z,19.00
2019-05-25T07:05:45.635Z,18.88
2019-05-25T07:08:15.279Z,18.88
2019-05-25T07:10:44.881Z,18.99
2019-05-25T07:13:14.477Z,18.96
2019-05-25T07:15:44.070Z,19.10
2019-05-25T07:18:13.628Z,19.02
2019-05-25T07:20:44.801Z,19.02
2019-05-25T07:23:14.363Z,18.95
2019-05-25T07:25:44.016Z,19.10
2019-05-25T07:28:13.643Z,19.38
2019-05-25T07:30:46.522Z,19.37
2019-05-25T07:33:14.564Z,19.12
2019-05-25T07:35:44.158Z,19.31
2019-05-25T07:38:13.728Z,19.20
2019-05-25T07:40:43.364Z,19.34
2019-05-25T07:43:13.010Z,19.62
2019-05-25T07:45:43.222Z,19.76
2019-05-25T07:48:12.783Z,19.79
2019-05-25T07:50:42.351Z,19.67
2019-05-25T07:53:13.535Z,19.70
2019-05-25T07:55:43.102Z,19.68
2019-05-25T07:58:17.569Z,19.67
2019-05-25T08:00:43.947Z,19.76
2019-05-25T08:03:13.543Z,19.80
2019-05-25T08:05:43.097Z,19.67
2019-05-25T08:08:12.665Z,19.70
2019-05-25T08:10:44.549Z,19.69
2019-05-25T08:13:13.626Z,20.00
2019-05-25T08:15:43.609Z,19.78
2019-05-25T08:18:13.181Z,19.92
2019-05-25T08:20:42.752Z,20.02
2019-05-25T08:23:12.329Z,19.78
2019-05-25T08:25:41.894Z,19.95
2019-05-25T08:28:11.501Z,20.03
2019-05-25T08:30:41.087Z,20.18
2019-05-25T08:33:10.638Z,20.33
2019-05-25T08:35:40.209Z,20.46
2019-05-25T08:38:09.808Z,20.35
2019-05-25T08:40:39.370Z,20.49
2019-05-25T08:43:08.991Z,20.31
2019-05-25T08:45:38.551Z,20.42
2019-05-25T08:48:08.196Z,20.59
2019-05-25T08:50:38.862Z,20.87
2019-05-25T08:53:08.830Z,20.66
2019-05-25T08:55:38.659Z,20.81
2019-05-25T08:58:09.869Z,21.02
2019-05-25T09:00:39.407Z,21.11
2019-05-25T09:03:09.334Z,21.62
2019-05-25T09:05:38.905Z,21.56
2019-05-25T09:08:08.543Z,21.54
2019-05-25T09:10:38.118Z,21.81
2019-05-25T09:13:07.692Z,21.87
2019-05-25T09:15:38.950Z,21.61
2019-05-25T09:18:08.525Z,21.60
2019-05-25T09:20:39.367Z,21.60
2019-05-25T09:23:08.992Z,21.69
2019-05-25T09:25:38.561Z,21.89
2019-05-25T09:28:08.311Z,22.15
2019-05-25T09:30:37.888Z,22.26
2019-05-25T09:33:07.473Z,22.07
2019-05-25T09:35:37.023Z,22.08
2019-05-25T09:38:06.593Z,22.19
2019-05-25T09:40:36.173Z,22.40
2019-05-25T09:43:05.749Z,21.95
2019-05-25T09:45:35.317Z,21.83
2019-05-25T09:48:04.870Z,21.55
2019-05-25T09:50:34.455Z,21.93
2019-05-25T09:53:04.127Z,21.97
2019-05-25T09:55:35.196Z,22.20
2019-05-25T09:58:04.842Z,21.74
2019-05-25T10:00:34.580Z,21.76
2019-05-25T10:03:04.182Z,22.07
2019-05-25T10:05:33.727Z,21.91
2019-05-25T10:08:03.425Z,21.79
2019-05-25T10:10:33.027Z,21.83
2019-05-25T10:13:02.668Z,21.89
2019-05-25T10:15:32.242Z,21.96
2019-05-25T10:18:01.827Z,22.09
2019-05-25T10:20:31.403Z,22.07
2019-05-25T10:23:00.967Z,22.04
2019-05-25T10:25:30.538Z,22.13
2019-05-25T10:28:00.102Z,22.18
2019-05-25T10:30:29.684Z,22.27
2019-05-25T10:32:59.284Z,22.07
2019-05-25T10:35:28.901Z,22.15
2019-05-25T10:37:58.474Z,22.14
2019-05-25T10:40:28.043Z,22.24
2019-05-25T10:42:57.606Z,22.12
2019-05-25T10:45:28.189Z,22.36
2019-05-25T10:47:57.791Z,22.65
2019-05-25T10:50:27.468Z,22.81
2019-05-25T10:52:57.005Z,22.83
2019-05-25T10:55:26.581Z,22.76
2019-05-25T10:57:56.139Z,22.65
2019-05-25T11:00:26.314Z,22.68
2019-05-25T11:02:55.896Z,22.59
2019-05-25T11:05:25.609Z,22.86
2019-05-25T11:07:55.161Z,22.65
2019-05-25T11:10:24.873Z,22.73
2019-05-25T11:12:54.441Z,23.06
2019-05-25T11:15:24.089Z,22.87
2019-05-25T11:17:53.707Z,23.11
2019-05-25T11:20:23.433Z,22.89
2019-05-25T11:22:52.986Z,23.08
2019-05-25T11:25:22.661Z,22.91
2019-05-25T11:27:52.287Z,23.33
2019-05-25T11:30:23.276Z,23.19
2019-05-25T11:32:52.869Z,23.36
2019-05-25T11:35:22.737Z,23.40
2019-05-25T11:37:52.309Z,23.41
2019-05-25T11:40:22.706Z,23.29
2019-05-25T11:42:54.669Z,23.26
2019-05-25T11:45:24.842Z,23.57
2019-05-25T11:47:54.426Z,23.46
2019-05-25T11:50:24.204Z,23.50
2019-05-25T11:52:53.810Z,23.45
2019-05-25T11:55:24.621Z,23.74
2019-05-25T11:57:54.186Z,23.57
2019-05-25T12:00:25.894Z,23.62
2019-05-25T12:02:55.798Z,24.13
2019-05-25T12:05:25.372Z,23.84
2019-05-25T12:07:54.937Z,24.36
2019-05-25T12:10:24.499Z,24.50
2019-05-25T12:12:54.064Z,24.40
2019-05-25T12:15:23.706Z,24.76
2019-05-25T12:17:53.263Z,24.97
2019-05-25T12:20:22.971Z,25.62
2019-05-25T12:22:52.595Z,25.53
2019-05-25T12:25:22.189Z,25.73
2019-05-25T12:27:51.796Z,25.70
2019-05-25T12:30:21.955Z,25.92
2019-05-25T12:32:51.523Z,26.04
2019-05-25T12:35:21.955Z,26.65
2019-05-25T12:37:51.528Z,26.85
2019-05-25T12:40:21.241Z,27.51
2019-05-25T12:42:50.843Z,27.07
2019-05-25T12:45:22.257Z,26.82
2019-05-25T12:47:52.851Z,27.68
2019-05-25T12:50:22.914Z,27.36
2019-05-25T12:52:53.678Z,27.70
2019-05-25T12:55:23.307Z,28.69
2019-05-25T12:57:52.936Z,29.95
2019-05-25T13:00:22.820Z,32.35
2019-05-25T13:02:52.426Z,33.56
2019-05-25T13:05:33.743Z,35.67
2019-05-25T13:07:53.284Z,37.58
2019-05-25T13:10:22.951Z,38.15
2019-05-25T13:12:52.496Z,38.91
2019-05-25T13:15:22.071Z,35.41
2019-05-25T13:17:51.645Z,37.61
2019-05-25T13:20:21.430Z,39.46
2019-05-25T13:22:51.012Z,35.10
2019-05-25T13:25:20.656Z,38.26
2019-05-25T13:27:50.218Z,38.26
2019-05-25T13:30:20.000Z,41.45
2019-05-25T13:32:49.560Z,41.76
2019-05-25T13:35:19.199Z,39.74
2019-05-25T13:37:50.308Z,44.17
2019-05-25T13:40:19.954Z,39.70
2019-05-25T13:42:49.552Z,35.97
2019-05-25T13:45:22.239Z,32.95
2019-05-25T13:47:51.868Z,39.74
2019-05-25T13:50:21.534Z,37.23
2019-05-25T13:52:51.096Z,41.04
2019-05-25T13:55:20.668Z,43.62
2019-05-25T13:57:50.250Z,47.97
2019-05-25T14:00:21.610Z,46.18
2019-05-25T14:02:51.176Z,45.50
2019-05-25T14:05:20.812Z,43.98
2019-05-25T14:07:50.366Z,47.42
2019-05-25T14:10:19.930Z,48.41
2019-05-25T14:12:49.550Z,49.17
2019-05-25T14:15:19.197Z,46.95
2019-05-25T14:17:48.746Z,45.95
2019-05-25T14:20:19.022Z,47.41
2019-05-25T14:22:48.593Z,44.32
2019-05-25T14:25:18.226Z,45.57
2019-05-25T14:27:47.864Z,44.53
2019-05-25T14:30:17.937Z,41.55
2019-05-25T14:32:47.517Z,46.03
2019-05-25T14:35:17.385Z,39.41
2019-05-25T14:37:47.718Z,43.13
2019-05-25T14:40:18.854Z,45.00
2019-05-25T14:42:48.434Z,45.72
2019-05-25T14:45:18.247Z,46.49
2019-05-25T14:47:47.813Z,45.01
2019-05-25T14:50:17.902Z,45.41
2019-05-25T14:52:49.117Z,45.02
2019-05-25T14:55:18.759Z,45.81
2019-05-25T14:57:48.415Z,44.68
2019-05-25T15:00:19.867Z,46.06
2019-05-25T15:02:50.757Z,45.64
2019-05-25T15:05:20.330Z,42.16
2019-05-25T15:07:51.416Z,45.45
2019-05-25T15:10:21.050Z,46.72
2019-05-25T15:12:50.612Z,42.54
2019-05-25T15:15:20.625Z,35.27
2019-05-25T15:17:50.184Z,34.55
2019-05-25T15:20:20.894Z,42.33
2019-05-25T15:22:50.512Z,43.85
2019-05-25T15:25:20.151Z,46.44
2019-05-25T15:27:49.694Z,46.07
2019-05-25T15:30:19.574Z,38.97
2019-05-25T15:32:49.135Z,33.63
2019-05-25T15:35:20.362Z,36.52
2019-05-25T15:37:51.401Z,36.29
2019-05-25T15:40:22.785Z,33.64
2019-05-25T15:42:52.382Z,32.50
2019-05-25T15:45:22.270Z,33.08
2019-05-25T15:47:51.865Z,31.52
2019-05-25T15:50:22.231Z,31.46
2019-05-25T15:52:51.801Z,31.71
2019-05-25T15:55:21.723Z,31.22
2019-05-25T15:57:51.373Z,30.95
2019-05-25T16:00:24.151Z,30.17
2019-05-25T16:02:53.719Z,29.36
2019-05-25T16:05:23.897Z,28.50
2019-05-25T16:07:56.006Z,27.76
2019-05-25T16:10:25.595Z,27.70
2019-05-25T16:12:55.145Z,27.33
2019-05-25T16:15:29.115Z,27.45
2019-05-25T16:17:58.702Z,27.83
2019-05-25T16:20:28.257Z,28.03
2019-05-25T16:22:57.833Z,28.04
2019-05-25T16:25:27.634Z,27.83
2019-05-25T16:27:57.198Z,28.38
2019-05-25T16:30:26.839Z,28.40
2019-05-25T16:33:13.927Z,28.44
2019-05-25T16:35:28.664Z,28.19
2019-05-25T16:37:58.398Z,28.50
2019-05-25T16:40:28.097Z,28.21
2019-05-25T16:42:57.693Z,27.80
2019-05-25T16:45:27.268Z,27.13
2019-05-25T16:47:56.835Z,27.04
2019-05-25T16:50:26.419Z,27.64
2019-05-25T16:52:55.992Z,27.67
2019-05-25T16:55:25.582Z,27.08
2019-05-25T16:57:55.228Z,26.96
2019-05-25T17:00:29.717Z,27.01
2019-05-25T17:03:00.160Z,26.28
2019-05-25T17:05:29.901Z,26.57
2019-05-25T17:07:59.456Z,26.07
2019-05-25T17:10:30.654Z,26.26
2019-05-25T17:13:00.222Z,26.00
2019-05-25T17:15:29.794Z,25.78
2019-05-25T17:17:59.367Z,25.65
2019-05-25T17:20:30.507Z,25.91
2019-05-25T17:23:00.086Z,26.00
2019-05-25T17:25:29.663Z,25.56
2019-05-25T17:27:59.213Z,25.13
2019-05-25T17:30:39.212Z,25.44
2019-05-25T17:33:08.911Z,25.02
2019-05-25T17:35:38.551Z,24.93
2019-05-25T17:38:08.828Z,25.04
2019-05-25T17:40:38.404Z,24.89
2019-05-25T17:43:08.113Z,24.90
2019-05-25T17:45:37.679Z,24.64
2019-05-25T17:48:07.475Z,24.30
2019-05-25T17:50:37.137Z,24.13
2019-05-25T17:53:06.764Z,24.19
2019-05-25T17:55:36.393Z,23.89
2019-05-25T17:58:06.406Z,23.97
2019-05-25T18:00:48.105Z,23.76
2019-05-25T18:03:18.832Z,23.82
2019-05-25T18:05:48.930Z,23.89
2019-05-25T18:08:18.613Z,23.76
2019-05-25T18:10:53.243Z,23.71
2019-05-25T18:13:19.477Z,23.62
2019-05-25T18:15:49.116Z,23.40
2019-05-25T18:18:18.673Z,23.42
2019-05-25T18:20:48.335Z,23.42
2019-05-25T18:23:17.896Z,23.50
2019-05-25T18:25:48.607Z,22.93
2019-05-25T18:28:18.188Z,22.98
2019-05-25T18:30:48.009Z,23.04
2019-05-25T18:33:17.648Z,23.07
2019-05-25T18:35:47.264Z,23.07
2019-05-25T18:38:16.986Z,22.94
2019-05-25T18:40:48.089Z,22.95
2019-05-25T18:43:17.677Z,22.89
2019-05-25T18:45:47.322Z,22.50
2019-05-25T18:48:16.889Z,22.59
2019-05-25T18:50:46.527Z,22.65
2019-05-25T18:53:17.618Z,22.45
2019-05-25T18:55:47.190Z,22.42
2019-05-25T18:58:16.835Z,22.17
2019-05-25T19:00:46.419Z,22.23
2019-05-25T19:03:15.979Z,22.14
2019-05-25T19:05:45.542Z,21.98
2019-05-25T19:08:15.115Z,22.02
2019-05-25T19:10:44.746Z,22.23
2019-05-25T19:13:14.329Z,22.20
2019-05-25T19:15:43.908Z,22.05
2019-05-25T19:18:13.480Z,21.90
2019-05-25T19:20:43.050Z,21.71
2019-05-25T19:23:12.760Z,21.83
2019-05-25T19:25:42.324Z,21.93
2019-05-25T19:28:11.934Z,21.78
2019-05-25T19:30:41.503Z,21.85
2019-05-25T19:33:11.112Z,21.47
2019-05-25T19:35:40.683Z,21.21
2019-05-25T19:38:10.256Z,21.35
2019-05-25T19:40:39.820Z,21.39
2019-05-25T19:43:09.397Z,21.22
2019-05-25T19:45:38.975Z,21.22
2019-05-25T19:48:08.540Z,21.25
2019-05-25T19:50:38.120Z,21.16
2019-05-25T19:53:11.301Z,21.05
2019-05-25T19:55:40.857Z,20.98
2019-05-25T19:58:10.431Z,20.77
2019-05-25T20:00:40.008Z,20.60
2019-05-25T20:03:09.564Z,20.96
2019-05-25T20:05:39.142Z,20.82
2019-05-25T20:08:08.707Z,20.56
2019-05-25T20:10:38.291Z,20.44
2019-05-25T20:13:07.860Z,20.65
2019-05-25T20:15:37.438Z,20.53
2019-05-25T20:18:07.096Z,20.54
2019-05-25T20:20:36.728Z,20.70
2019-05-25T20:23:06.323Z,20.45
2019-05-25T20:25:35.883Z,20.17
2019-05-25T20:28:05.529Z,20.05
2019-05-25T20:30:35.094Z,20.25
2019-05-25T20:33:04.748Z,20.41
2019-05-25T20:35:35.850Z,20.30
2019-05-25T20:38:05.438Z,20.10
2019-05-25T20:40:35.075Z,20.11
2019-05-25T20:43:05.946Z,20.15
2019-05-25T20:45:35.525Z,20.03
2019-05-25T20:48:05.162Z,20.12
2019-05-25T20:50:34.726Z,20.42
2019-05-25T20:53:04.377Z,20.01
2019-05-25T20:55:33.950Z,20.04
2019-05-25T20:58:03.751Z,20.14
2019-05-25T21:00:33.482Z,19.96
2019-05-25T21:03:06.621Z,19.92
2019-05-25T21:05:49.165Z,19.89
2019-05-25T21:08:05.791Z,19.81
2019-05-25T21:10:35.405Z,19.80
2019-05-25T21:13:07.917Z,19.78
2019-05-25T21:15:37.488Z,19.68
2019-05-25T21:18:07.057Z,19.72
2019-05-25T21:20:36.621Z,19.54
2019-05-25T21:23:06.204Z,19.70
2019-05-25T21:25:35.773Z,19.75
2019-05-25T21:28:05.346Z,19.73
2019-05-25T21:30:34.914Z,19.82
2019-05-25T21:33:04.488Z,19.91
2019-05-25T21:35:34.138Z,19.82
2019-05-25T21:38:03.724Z,19.74
2019-05-25T21:40:33.302Z,19.73
2019-05-25T21:43:02.886Z,19.69
2019-05-25T21:45:32.469Z,19.40
2019-05-25T21:48:02.029Z,19.14
2019-05-25T21:50:31.612Z,19.31
2019-05-25T21:53:01.187Z,19.29
2019-05-25T21:55:30.777Z,19.34
2019-05-25T21:58:00.452Z,19.38
2019-05-25T22:00:31.857Z,19.26
2019-05-25T22:03:01.578Z,19.29
2019-05-25T22:05:31.204Z,19.43
2019-05-25T22:08:00.805Z,19.23
2019-05-25T22:10:30.521Z,19.00
2019-05-25T22:13:03.181Z,19.23
2019-05-25T22:15:32.732Z,19.18
2019-05-25T22:18:02.322Z,18.90
2019-05-25T22:20:31.970Z,18.62
2019-05-25T22:23:01.622Z,18.70
2019-05-25T22:25:31.202Z,18.45
2019-05-25T22:28:00.775Z,18.43
2019-05-25T22:30:30.373Z,18.88
2019-05-25T22:32:59.952Z,18.88
2019-05-25T22:35:31.055Z,18.94
2019-05-25T22:38:00.626Z,18.99
2019-05-25T22:40:30.268Z,19.14
2019-05-25T22:42:59.859Z,18.96
2019-05-25T22:45:29.431Z,18.90
2019-05-25T22:47:58.989Z,19.03
2019-05-25T22:50:28.561Z,19.11
2019-05-25T22:52:58.150Z,19.08
2019-05-25T22:55:27.732Z,18.74
2019-05-25T22:57:57.305Z,18.80
2019-05-25T23:00:27.110Z,18.84
2019-05-25T23:02:56.675Z,18.88
2019-05-25T23:05:26.242Z,18.91
2019-05-25T23:07:55.817Z,18.90
2019-05-25T23:10:25.401Z,18.70
2019-05-25T23:12:55.038Z,18.30
2019-05-25T23:15:24.621Z,18.41
2019-05-25T23:17:54.197Z,18.41
2019-05-25T23:20:23.766Z,18.16
2019-05-25T23:22:53.347Z,17.98
2019-05-25T23:25:22.907Z,17.69
2019-05-25T23:27:52.483Z,17.79
2019-05-25T23:30:22.359Z,17.80
2019-05-25T23:32:51.962Z,17.81
2019-05-25T23:35:21.540Z,17.71
2019-05-25T23:37:51.103Z,17.44
2019-05-25T23:40:20.829Z,17.57
2019-05-25T23:42:50.458Z,17.91
2019-05-25T23:45:20.550Z,17.81
2019-05-25T23:47:50.120Z,17.66
2019-05-25T23:50:19.830Z,17.73
2019-05-25T23:52:49.647Z,17.47
2019-05-25T23:55:20.882Z,17.67
2019-05-25T23:57:50.541Z,17.71
